sensor_id;sensor_type;location;lat;lon;timestamp;pressure;altitude;pressure_sealevel;temperature;humidity
46111;BME280;31849;55.992;37.252;2023-02-08T00:03:32;101600.75;;;-3.87;50.82
46111;BME280;31849;55.992;37.252;2023-02-08T00:08:38;101595.19;;;-4.02;50.73
46111;BME280;31849;55.992;37.252;2023-02-08T00:13:41;101604.56;;;-4.01;51.26
46111;BME280;31849;55.992;37.252;2023-02-08T00:18:44;101613.16;;;-4.09;50.95
46111;BME280;31849;55.992;37.252;2023-02-08T00:23:49;101602.53;;;-4.05;50.93
46111;BME280;31849;55.992;37.252;2023-02-08T00:28:53;101605.13;;;-4.14;51.13
46111;BME280;31849;55.992;37.252;2023-02-08T00:33:56;101611.78;;;-4.06;51.15
46111;BME280;31849;55.992;37.252;2023-02-08T00:39:01;101604.72;;;-3.99;50.69
46111;BME280;31849;55.992;37.252;2023-02-08T00:44:04;101598.00;;;-3.99;50.64
46111;BME280;31849;55.992;37.252;2023-02-08T00:49:08;101598.31;;;-4.24;51.57
46111;BME280;31849;55.992;37.252;2023-02-08T00:54:14;101593.50;;;-4.20;51.53
46111;BME280;31849;55.992;37.252;2023-02-08T00:59:18;101590.13;;;-4.57;51.89
46111;BME280;31849;55.992;37.252;2023-02-08T01:04:21;101586.63;;;-4.40;51.32
46111;BME280;31849;55.992;37.252;2023-02-08T01:09:26;101577.34;;;-4.40;51.63
46111;BME280;31849;55.992;37.252;2023-02-08T01:14:30;101573.00;;;-4.41;51.85
46111;BME280;31849;55.992;37.252;2023-02-08T01:19:33;101567.47;;;-4.37;51.75
46111;BME280;31849;55.992;37.252;2023-02-08T01:24:38;101563.78;;;-4.21;52.10
46111;BME280;31849;55.992;37.252;2023-02-08T01:29:41;101573.22;;;-4.29;52.21
46111;BME280;31849;55.992;37.252;2023-02-08T01:34:45;101561.53;;;-4.18;51.41
46111;BME280;31849;55.992;37.252;2023-02-08T01:39:50;101561.25;;;-4.21;51.75
46111;BME280;31849;55.992;37.252;2023-02-08T01:45:27;101562.00;;;-4.22;51.89
46111;BME280;31849;55.992;37.252;2023-02-08T01:50:38;101570.97;;;-4.26;51.50
46111;BME280;31849;55.992;37.252;2023-02-08T01:55:47;101567.75;;;-4.34;52.35
46111;BME280;31849;55.992;37.252;2023-02-08T02:00:53;101568.69;;;-4.70;53.15
46111;BME280;31849;55.992;37.252;2023-02-08T02:06:02;101562.47;;;-4.54;52.47
46111;BME280;31849;55.992;37.252;2023-02-08T02:11:10;101554.53;;;-4.49;52.76
46111;BME280;31849;55.992;37.252;2023-02-08T02:16:15;101554.59;;;-4.57;52.58
46111;BME280;31849;55.992;37.252;2023-02-08T02:21:41;101544.44;;;-4.57;52.38
46111;BME280;31849;55.992;37.252;2023-02-08T02:27:03;101545.94;;;-4.60;52.89
46111;BME280;31849;55.992;37.252;2023-02-08T02:32:25;101538.38;;;-4.68;52.93
46111;BME280;31849;55.992;37.252;2023-02-08T02:37:44;101546.78;;;-4.50;52.51
46111;BME280;31849;55.992;37.252;2023-02-08T02:43:00;101534.63;;;-4.44;52.26
46111;BME280;31849;55.992;37.252;2023-02-08T02:48:30;101534.69;;;-4.53;52.38
46111;BME280;31849;55.992;37.252;2023-02-08T02:53:41;101542.44;;;-4.51;52.57
46111;BME280;31849;55.992;37.252;2023-02-08T02:58:47;101524.69;;;-4.51;52.85
46111;BME280;31849;55.992;37.252;2023-02-08T03:03:53;101515.66;;;-4.67;52.58
46111;BME280;31849;55.992;37.252;2023-02-08T03:09:24;101515.75;;;-4.84;52.91
46111;BME280;31849;55.992;37.252;2023-02-08T03:14:33;101524.63;;;-4.62;53.09
46111;BME280;31849;55.992;37.252;2023-02-08T03:19:44;101514.88;;;-4.85;52.95
46111;BME280;31849;55.992;37.252;2023-02-08T03:24:54;101511.06;;;-4.71;52.57
46111;BME280;31849;55.992;37.252;2023-02-08T03:30:00;101503.66;;;-4.59;52.38
46111;BME280;31849;55.992;37.252;2023-02-08T03:35:11;101496.38;;;-4.65;52.69
46111;BME280;31849;55.992;37.252;2023-02-08T03:40:21;101506.16;;;-4.50;52.67
46111;BME280;31849;55.992;37.252;2023-02-08T03:45:29;101502.66;;;-4.61;52.75
46111;BME280;31849;55.992;37.252;2023-02-08T03:50:38;101507.31;;;-4.66;53.22
46111;BME280;31849;55.992;37.252;2023-02-08T03:55:45;101500.13;;;-4.61;53.64
46111;BME280;31849;55.992;37.252;2023-02-08T04:00:54;101489.53;;;-4.66;53.64
46111;BME280;31849;55.992;37.252;2023-02-08T04:05:59;101483.91;;;-4.53;53.41
46111;BME280;31849;55.992;37.252;2023-02-08T04:11:03;101478.91;;;-4.43;52.81
46111;BME280;31849;55.992;37.252;2023-02-08T04:16:08;101477.91;;;-4.45;52.81
46111;BME280;31849;55.992;37.252;2023-02-08T04:21:13;101478.16;;;-4.42;53.11
46111;BME280;31849;55.992;37.252;2023-02-08T04:26:17;101480.66;;;-4.33;53.18
46111;BME280;31849;55.992;37.252;2023-02-08T04:31:20;101485.19;;;-4.20;52.94
46111;BME280;31849;55.992;37.252;2023-02-08T04:36:26;101483.31;;;-4.12;53.01
46111;BME280;31849;55.992;37.252;2023-02-08T04:41:29;101487.84;;;-4.18;53.15
46111;BME280;31849;55.992;37.252;2023-02-08T04:46:33;101487.22;;;-4.16;53.13
46111;BME280;31849;55.992;37.252;2023-02-08T04:51:38;101483.03;;;-4.15;53.25
46111;BME280;31849;55.992;37.252;2023-02-08T04:56:41;101467.41;;;-4.20;53.70
46111;BME280;31849;55.992;37.252;2023-02-08T05:01:44;101481.31;;;-4.25;53.12
46111;BME280;31849;55.992;37.252;2023-02-08T05:06:49;101467.22;;;-4.02;53.24
46111;BME280;31849;55.992;37.252;2023-02-08T05:11:53;101472.22;;;-4.23;54.24
46111;BME280;31849;55.992;37.252;2023-02-08T05:16:56;101464.91;;;-4.10;53.60
46111;BME280;31849;55.992;37.252;2023-02-08T05:22:01;101458.78;;;-4.12;53.62
46111;BME280;31849;55.992;37.252;2023-02-08T05:27:05;101468.59;;;-4.06;53.71
46111;BME280;31849;55.992;37.252;2023-02-08T05:32:09;101468.78;;;-3.94;53.71
46111;BME280;31849;55.992;37.252;2023-02-08T05:37:13;101450.63;;;-3.99;53.23
46111;BME280;31849;55.992;37.252;2023-02-08T05:42:17;101448.34;;;-3.96;53.57
46111;BME280;31849;55.992;37.252;2023-02-08T05:47:21;101448.38;;;-3.85;53.18
46111;BME280;31849;55.992;37.252;2023-02-08T05:52:25;101451.28;;;-3.91;53.96
46111;BME280;31849;55.992;37.252;2023-02-08T05:57:29;101445.50;;;-3.80;53.31
46111;BME280;31849;55.992;37.252;2023-02-08T06:02:36;101433.50;;;-3.91;53.85
46111;BME280;31849;55.992;37.252;2023-02-08T06:07:41;101453.03;;;-3.61;53.14
46111;BME280;31849;55.992;37.252;2023-02-08T06:12:44;101448.25;;;-3.47;52.84
46111;BME280;31849;55.992;37.252;2023-02-08T06:17:48;101436.78;;;-3.53;53.25
46111;BME280;31849;55.992;37.252;2023-02-08T06:22:53;101429.09;;;-3.33;52.97
46111;BME280;31849;55.992;37.252;2023-02-08T06:27:57;101427.91;;;-3.47;53.17
46111;BME280;31849;55.992;37.252;2023-02-08T06:33:01;101430.94;;;-3.62;53.65
46111;BME280;31849;55.992;37.252;2023-02-08T06:38:06;101427.09;;;-3.67;53.35
46111;BME280;31849;55.992;37.252;2023-02-08T06:43:09;101433.28;;;-3.44;53.44
46111;BME280;31849;55.992;37.252;2023-02-08T06:48:12;101418.16;;;-3.32;53.18
46111;BME280;31849;55.992;37.252;2023-02-08T06:53:18;101426.19;;;-3.28;53.15
46111;BME280;31849;55.992;37.252;2023-02-08T06:58:22;101409.25;;;-3.27;53.32
46111;BME280;31849;55.992;37.252;2023-02-08T07:03:25;101409.00;;;-3.30;53.29
46111;BME280;31849;55.992;37.252;2023-02-08T07:08:31;101400.34;;;-3.43;53.87
46111;BME280;31849;55.992;37.252;2023-02-08T07:13:35;101399.34;;;-3.14;53.18
46111;BME280;31849;55.992;37.252;2023-02-08T07:18:39;101397.31;;;-3.08;52.68
46111;BME280;31849;55.992;37.252;2023-02-08T07:23:44;101397.69;;;-2.72;52.92
46111;BME280;31849;55.992;37.252;2023-02-08T07:28:47;101389.16;;;-2.62;52.17
46111;BME280;31849;55.992;37.252;2023-02-08T07:33:51;101395.13;;;-2.83;52.62
46111;BME280;31849;55.992;37.252;2023-02-08T07:38:56;101390.28;;;-2.59;52.54
46111;BME280;31849;55.992;37.252;2023-02-08T07:43:59;101390.25;;;-2.49;52.65
46111;BME280;31849;55.992;37.252;2023-02-08T07:49:03;101384.03;;;-2.52;52.21
46111;BME280;31849;55.992;37.252;2023-02-08T07:54:08;101393.50;;;-2.29;51.66
46111;BME280;31849;55.992;37.252;2023-02-08T07:59:11;101389.28;;;-2.18;51.55
46111;BME280;31849;55.992;37.252;2023-02-08T08:04:15;101365.31;;;-2.20;52.16
46111;BME280;31849;55.992;37.252;2023-02-08T08:09:22;101355.59;;;-2.14;51.87
46111;BME280;31849;55.992;37.252;2023-02-08T08:14:25;101357.28;;;-2.15;51.61
46111;BME280;31849;55.992;37.252;2023-02-08T08:19:29;101347.47;;;-1.88;51.11
46111;BME280;31849;55.992;37.252;2023-02-08T08:24:33;101352.50;;;-1.78;51.25
46111;BME280;31849;55.992;37.252;2023-02-08T08:29:37;101358.91;;;-1.61;50.87
46111;BME280;31849;55.992;37.252;2023-02-08T08:34:41;101360.69;;;-1.60;51.12
46111;BME280;31849;55.992;37.252;2023-02-08T08:39:46;101312.44;;;-1.56;50.87
46111;BME280;31849;55.992;37.252;2023-02-08T08:44:49;101352.06;;;-1.28;50.50
46111;BME280;31849;55.992;37.252;2023-02-08T08:49:53;101322.31;;;-1.27;50.15
46111;BME280;31849;55.992;37.252;2023-02-08T08:54:58;101331.53;;;-1.17;50.47
46111;BME280;31849;55.992;37.252;2023-02-08T09:00:01;101339.25;;;-1.39;50.50
46111;BME280;31849;55.992;37.252;2023-02-08T09:05:05;101336.63;;;-1.17;50.51
46111;BME280;31849;55.992;37.252;2023-02-08T09:10:10;101313.25;;;-0.88;50.48
46111;BME280;31849;55.992;37.252;2023-02-08T09:15:14;101302.94;;;-0.66;49.79
46111;BME280;31849;55.992;37.252;2023-02-08T09:20:18;101315.72;;;-0.42;49.41
46111;BME280;31849;55.992;37.252;2023-02-08T09:25:24;101317.66;;;-0.03;48.69
46111;BME280;31849;55.992;37.252;2023-02-08T09:30:28;101320.72;;;0.17;48.16
46111;BME280;31849;55.992;37.252;2023-02-08T09:35:31;101310.41;;;0.79;47.15
46111;BME280;31849;55.992;37.252;2023-02-08T09:40:41;101299.94;;;1.15;46.46
46111;BME280;31849;55.992;37.252;2023-02-08T09:45:50;101287.84;;;1.81;45.23
46111;BME280;31849;55.992;37.252;2023-02-08T09:51:06;101291.63;;;2.14;44.53
46111;BME280;31849;55.992;37.252;2023-02-08T09:56:15;101280.06;;;1.79;45.39
46111;BME280;31849;55.992;37.252;2023-02-08T10:01:21;101281.41;;;1.32;46.09
46111;BME280;31849;55.992;37.252;2023-02-08T10:06:27;101272.81;;;1.05;45.86
46111;BME280;31849;55.992;37.252;2023-02-08T10:11:47;101261.56;;;0.90;46.42
46111;BME280;31849;55.992;37.252;2023-02-08T10:16:59;101251.75;;;0.57;46.18
46111;BME280;31849;55.992;37.252;2023-02-08T10:22:14;101256.88;;;0.57;46.67
46111;BME280;31849;55.992;37.252;2023-02-08T10:27:23;101262.44;;;0.90;46.35
46111;BME280;31849;55.992;37.252;2023-02-08T10:32:44;101264.25;;;1.18;45.82
46111;BME280;31849;55.992;37.252;2023-02-08T10:37:54;101262.28;;;1.27;46.04
46111;BME280;31849;55.992;37.252;2023-02-08T10:43:09;101252.19;;;1.44;44.67
46111;BME280;31849;55.992;37.252;2023-02-08T10:48:27;101250.53;;;1.57;45.51
46111;BME280;31849;55.992;37.252;2023-02-08T10:53:33;101257.09;;;1.67;45.63
46111;BME280;31849;55.992;37.252;2023-02-08T10:58:38;101240.75;;;1.52;45.69
46111;BME280;31849;55.992;37.252;2023-02-08T11:03:59;101246.38;;;1.60;45.48
46111;BME280;31849;55.992;37.252;2023-02-08T11:09:04;101228.22;;;1.56;45.24
46111;BME280;31849;55.992;37.252;2023-02-08T11:14:15;101229.22;;;1.87;45.42
46111;BME280;31849;55.992;37.252;2023-02-08T11:19:32;101218.13;;;2.01;44.66
46111;BME280;31849;55.992;37.252;2023-02-08T11:24:38;101207.94;;;2.03;45.01
46111;BME280;31849;55.992;37.252;2023-02-08T11:29:44;101204.56;;;1.89;45.13
46111;BME280;31849;55.992;37.252;2023-02-08T11:34:47;101193.94;;;1.83;45.31
46111;BME280;31849;55.992;37.252;2023-02-08T11:39:52;101198.09;;;1.39;45.68
46111;BME280;31849;55.992;37.252;2023-02-08T11:44:58;101187.84;;;1.39;45.84
46111;BME280;31849;55.992;37.252;2023-02-08T11:50:06;101187.25;;;1.43;45.90
46111;BME280;31849;55.992;37.252;2023-02-08T11:55:13;101189.94;;;1.31;45.79
46111;BME280;31849;55.992;37.252;2023-02-08T12:00:28;101175.50;;;1.47;45.95
46111;BME280;31849;55.992;37.252;2023-02-08T12:05:40;101174.47;;;1.58;45.55
46111;BME280;31849;55.992;37.252;2023-02-08T12:11:09;101173.56;;;1.29;46.40
46111;BME280;31849;55.992;37.252;2023-02-08T12:16:28;101164.38;;;1.33;45.61
46111;BME280;31849;55.992;37.252;2023-02-08T12:21:48;101166.50;;;1.12;46.09
46111;BME280;31849;55.992;37.252;2023-02-08T12:27:06;101149.63;;;1.15;46.80
46111;BME280;31849;55.992;37.252;2023-02-08T12:32:34;101152.94;;;1.28;46.29
46111;BME280;31849;55.992;37.252;2023-02-08T12:37:44;101148.28;;;1.07;46.42
46111;BME280;31849;55.992;37.252;2023-02-08T12:43:11;101150.16;;;0.83;47.06
46111;BME280;31849;55.992;37.252;2023-02-08T12:53:45;101136.66;;;0.85;46.56
46111;BME280;31849;55.992;37.252;2023-02-08T12:58:55;101118.38;;;0.66;46.92
46111;BME280;31849;55.992;37.252;2023-02-08T13:04:17;101108.59;;;0.47;47.48
46111;BME280;31849;55.992;37.252;2023-02-08T13:09:34;101124.75;;;0.59;47.43
46111;BME280;31849;55.992;37.252;2023-02-08T13:14:44;101106.63;;;0.43;47.28
46111;BME280;31849;55.992;37.252;2023-02-08T13:19:57;101118.06;;;0.48;47.52
46111;BME280;31849;55.992;37.252;2023-02-08T13:25:06;101128.00;;;0.30;48.31
46111;BME280;31849;55.992;37.252;2023-02-08T13:30:17;101099.22;;;0.07;48.04
46111;BME280;31849;55.992;37.252;2023-02-08T13:35:26;101112.72;;;0.18;47.82
46111;BME280;31849;55.992;37.252;2023-02-08T13:40:33;101119.88;;;0.10;48.12
46111;BME280;31849;55.992;37.252;2023-02-08T13:45:39;101108.66;;;0.08;48.53
46111;BME280;31849;55.992;37.252;2023-02-08T13:50:47;101108.53;;;-0.07;48.96
46111;BME280;31849;55.992;37.252;2023-02-08T13:55:55;101111.56;;;-0.12;48.69
46111;BME280;31849;55.992;37.252;2023-02-08T14:01:15;101107.44;;;-0.10;48.74
46111;BME280;31849;55.992;37.252;2023-02-08T14:06:22;101101.59;;;-0.21;48.99
46111;BME280;31849;55.992;37.252;2023-02-08T14:11:38;101115.91;;;-0.11;48.74
46111;BME280;31849;55.992;37.252;2023-02-08T14:16:45;101111.25;;;-0.17;48.97
46111;BME280;31849;55.992;37.252;2023-02-08T14:21:59;101110.19;;;-0.21;48.99
46111;BME280;31849;55.992;37.252;2023-02-08T14:27:08;101100.31;;;-0.28;49.25
46111;BME280;31849;55.992;37.252;2023-02-08T14:32:22;101100.06;;;-0.19;49.71
46111;BME280;31849;55.992;37.252;2023-02-08T14:37:29;101098.75;;;-0.26;49.46
46111;BME280;31849;55.992;37.252;2023-02-08T14:42:52;101097.44;;;-0.07;49.15
46111;BME280;31849;55.992;37.252;2023-02-08T14:53:23;101115.50;;;-0.17;49.51
46111;BME280;31849;55.992;37.252;2023-02-08T14:58:30;101100.31;;;-0.28;49.79
46111;BME280;31849;55.992;37.252;2023-02-08T15:03:34;101084.94;;;-0.03;50.10
46111;BME280;31849;55.992;37.252;2023-02-08T15:08:39;101088.44;;;0.38;49.93
46111;BME280;31849;55.992;37.252;2023-02-08T15:13:47;101086.25;;;0.71;49.13
46111;BME280;31849;55.992;37.252;2023-02-08T15:18:52;101076.91;;;0.85;49.19
46111;BME280;31849;55.992;37.252;2023-02-08T15:24:02;101078.47;;;0.83;48.56
46111;BME280;31849;55.992;37.252;2023-02-08T15:29:16;101072.91;;;1.32;48.76
46111;BME280;31849;55.992;37.252;2023-02-08T15:34:23;101083.94;;;1.44;48.18
46111;BME280;31849;55.992;37.252;2023-02-08T15:39:32;101081.91;;;1.53;47.96
46111;BME280;31849;55.992;37.252;2023-02-08T15:44:41;101074.09;;;1.37;48.06
46111;BME280;31849;55.992;37.252;2023-02-08T15:49:46;101070.63;;;1.36;47.54
46111;BME280;31849;55.992;37.252;2023-02-08T15:54:53;101065.19;;;1.17;47.67
46111;BME280;31849;55.992;37.252;2023-02-08T15:59:57;101067.06;;;0.78;48.38
46111;BME280;31849;55.992;37.252;2023-02-08T16:05:09;101069.25;;;0.31;49.02
46111;BME280;31849;55.992;37.252;2023-02-08T16:10:27;101074.66;;;0.23;48.52
46111;BME280;31849;55.992;37.252;2023-02-08T16:15:41;101078.81;;;-0.05;49.58
46111;BME280;31849;55.992;37.252;2023-02-08T16:20:55;101078.16;;;-0.02;49.50
46111;BME280;31849;55.992;37.252;2023-02-08T16:26:12;101072.84;;;-0.05;49.76
46111;BME280;31849;55.992;37.252;2023-02-08T16:31:22;101078.31;;;-0.12;50.10
46111;BME280;31849;55.992;37.252;2023-02-08T16:36:33;101081.88;;;-0.10;50.28
46111;BME280;31849;55.992;37.252;2023-02-08T16:41:59;101081.31;;;-0.31;51.11
46111;BME280;31849;55.992;37.252;2023-02-08T16:47:24;101075.47;;;-0.42;50.61
46111;BME280;31849;55.992;37.252;2023-02-08T16:52:28;101089.19;;;-0.28;50.54
46111;BME280;31849;55.992;37.252;2023-02-08T16:57:44;101089.94;;;-0.17;50.74
46111;BME280;31849;55.992;37.252;2023-02-08T17:02:48;101085.84;;;-0.27;51.02
46111;BME280;31849;55.992;37.252;2023-02-08T17:07:52;101086.41;;;-0.31;51.11
46111;BME280;31849;55.992;37.252;2023-02-08T17:12:58;101083.13;;;-0.17;50.69
46111;BME280;31849;55.992;37.252;2023-02-08T17:18:21;101083.53;;;-0.11;50.90
46111;BME280;31849;55.992;37.252;2023-02-08T17:23:25;101075.38;;;-0.05;50.97
46111;BME280;31849;55.992;37.252;2023-02-08T17:28:30;101076.78;;;0.03;51.10
46111;BME280;31849;55.992;37.252;2023-02-08T17:33:36;101081.72;;;0.00;50.98
46111;BME280;31849;55.992;37.252;2023-02-08T17:38:42;101067.34;;;0.02;51.14
46111;BME280;31849;55.992;37.252;2023-02-08T17:43:51;101071.28;;;0.10;51.40
46111;BME280;31849;55.992;37.252;2023-02-08T17:48:54;101065.09;;;0.07;51.02
46111;BME280;31849;55.992;37.252;2023-02-08T17:54:02;101054.38;;;0.12;51.18
46111;BME280;31849;55.992;37.252;2023-02-08T17:59:08;101058.47;;;0.10;51.39
46111;BME280;31849;55.992;37.252;2023-02-08T18:04:11;101042.06;;;0.07;51.48
46111;BME280;31849;55.992;37.252;2023-02-08T18:09:15;101035.88;;;0.03;51.84
46111;BME280;31849;55.992;37.252;2023-02-08T18:14:20;101026.91;;;0.10;51.73
46111;BME280;31849;55.992;37.252;2023-02-08T18:19:23;101027.00;;;0.11;52.88
46111;BME280;31849;55.992;37.252;2023-02-08T18:24:29;101025.34;;;0.12;51.77
46111;BME280;31849;55.992;37.252;2023-02-08T18:29:34;101026.03;;;0.09;52.45
46111;BME280;31849;55.992;37.252;2023-02-08T18:34:38;101028.41;;;0.06;52.67
46111;BME280;31849;55.992;37.252;2023-02-08T18:39:43;101017.16;;;0.04;53.05
46111;BME280;31849;55.992;37.252;2023-02-08T18:44:48;101017.38;;;0.07;52.74
46111;BME280;31849;55.992;37.252;2023-02-08T18:49:52;101011.06;;;-0.11;53.99
46111;BME280;31849;55.992;37.252;2023-02-08T18:54:56;101011.06;;;-0.11;54.27
46111;BME280;31849;55.992;37.252;2023-02-08T19:00:01;101003.41;;;0.02;54.63
46111;BME280;31849;55.992;37.252;2023-02-08T19:05:05;101004.56;;;0.07;54.05
46111;BME280;31849;55.992;37.252;2023-02-08T19:10:09;100998.00;;;-0.03;54.32
46111;BME280;31849;55.992;37.252;2023-02-08T19:15:15;100991.59;;;0.04;54.75
46111;BME280;31849;55.992;37.252;2023-02-08T19:20:19;100979.63;;;0.03;54.72
46111;BME280;31849;55.992;37.252;2023-02-08T19:25:26;100979.09;;;0.09;54.41
46111;BME280;31849;55.992;37.252;2023-02-08T19:30:30;100983.53;;;0.11;54.61
46111;BME280;31849;55.992;37.252;2023-02-08T19:35:37;100961.53;;;0.00;54.95
46111;BME280;31849;55.992;37.252;2023-02-08T19:40:41;100972.13;;;-0.07;54.90
46111;BME280;31849;55.992;37.252;2023-02-08T19:45:46;100956.09;;;-0.05;55.73
46111;BME280;31849;55.992;37.252;2023-02-08T19:50:54;100957.56;;;0.05;55.94
46111;BME280;31849;55.992;37.252;2023-02-08T19:55:58;100956.50;;;0.15;55.53
46111;BME280;31849;55.992;37.252;2023-02-08T20:01:06;100950.94;;;0.22;55.41
46111;BME280;31849;55.992;37.252;2023-02-08T20:06:14;100943.28;;;0.09;55.71
46111;BME280;31849;55.992;37.252;2023-02-08T20:11:20;100938.19;;;-0.05;55.81
46111;BME280;31849;55.992;37.252;2023-02-08T20:16:27;100941.75;;;-0.03;55.95
46111;BME280;31849;55.992;37.252;2023-02-08T20:21:32;100932.38;;;-0.02;55.73
46111;BME280;31849;55.992;37.252;2023-02-08T20:26:41;100935.03;;;-0.01;55.95
46111;BME280;31849;55.992;37.252;2023-02-08T20:31:47;100941.56;;;-0.06;56.17
46111;BME280;31849;55.992;37.252;2023-02-08T20:36:52;100926.00;;;-0.22;56.54
46111;BME280;31849;55.992;37.252;2023-02-08T20:42:08;100924.91;;;-0.26;56.69
46111;BME280;31849;55.992;37.252;2023-02-08T20:47:13;100926.22;;;-0.06;56.65
46111;BME280;31849;55.992;37.252;2023-02-08T20:52:19;100912.22;;;-0.11;56.68
46111;BME280;31849;55.992;37.252;2023-02-08T20:57:23;100925.31;;;-0.06;56.59
46111;BME280;31849;55.992;37.252;2023-02-08T21:02:28;100924.13;;;0.02;56.54
46111;BME280;31849;55.992;37.252;2023-02-08T21:07:32;100935.72;;;-0.16;57.22
46111;BME280;31849;55.992;37.252;2023-02-08T21:12:35;100922.84;;;-0.18;56.66
46111;BME280;31849;55.992;37.252;2023-02-08T21:17:40;100929.63;;;0.08;56.92
46111;BME280;31849;55.992;37.252;2023-02-08T21:22:44;100933.47;;;0.15;56.51
46111;BME280;31849;55.992;37.252;2023-02-08T21:27:47;100933.25;;;0.12;56.89
46111;BME280;31849;55.992;37.252;2023-02-08T21:32:52;100900.34;;;0.03;56.04
46111;BME280;31849;55.992;37.252;2023-02-08T21:37:55;100934.34;;;0.15;56.65
46111;BME280;31849;55.992;37.252;2023-02-08T21:42:59;100930.00;;;0.14;56.29
46111;BME280;31849;55.992;37.252;2023-02-08T21:48:04;100931.78;;;0.15;56.60
46111;BME280;31849;55.992;37.252;2023-02-08T21:53:08;100917.53;;;-0.08;56.76
46111;BME280;31849;55.992;37.252;2023-02-08T21:58:29;100930.22;;;0.04;56.64
46111;BME280;31849;55.992;37.252;2023-02-08T22:03:34;100923.16;;;0.13;56.65
46111;BME280;31849;55.992;37.252;2023-02-08T22:08:37;100928.13;;;0.12;57.18
46111;BME280;31849;55.992;37.252;2023-02-08T22:13:42;100929.91;;;0.13;56.98
46111;BME280;31849;55.992;37.252;2023-02-08T22:18:47;100940.25;;;0.14;57.11
46111;BME280;31849;55.992;37.252;2023-02-08T22:23:50;100935.78;;;0.25;56.38
46111;BME280;31849;55.992;37.252;2023-02-08T22:28:54;100936.13;;;0.16;56.70
46111;BME280;31849;55.992;37.252;2023-02-08T22:33:59;100922.81;;;0.22;57.18
46111;BME280;31849;55.992;37.252;2023-02-08T22:39:19;100931.19;;;0.20;57.22
46111;BME280;31849;55.992;37.252;2023-02-08T22:44:23;100927.44;;;0.28;56.89
46111;BME280;31849;55.992;37.252;2023-02-08T22:49:28;100922.91;;;0.24;57.12
46111;BME280;31849;55.992;37.252;2023-02-08T22:54:32;100921.25;;;0.24;57.26
46111;BME280;31849;55.992;37.252;2023-02-08T22:59:36;100918.19;;;0.30;57.04
46111;BME280;31849;55.992;37.252;2023-02-08T23:04:41;100923.50;;;0.33;57.28
46111;BME280;31849;55.992;37.252;2023-02-08T23:09:44;100918.84;;;0.41;56.80
46111;BME280;31849;55.992;37.252;2023-02-08T23:14:48;100920.25;;;0.22;57.34
46111;BME280;31849;55.992;37.252;2023-02-08T23:19:53;100926.28;;;0.23;57.38
46111;BME280;31849;55.992;37.252;2023-02-08T23:24:56;100920.75;;;0.30;57.17
46111;BME280;31849;55.992;37.252;2023-02-08T23:30:00;100917.69;;;0.22;57.80
46111;BME280;31849;55.992;37.252;2023-02-08T23:35:07;100923.91;;;0.26;58.30
46111;BME280;31849;55.992;37.252;2023-02-08T23:40:11;100932.19;;;0.22;57.51
46111;BME280;31849;55.992;37.252;2023-02-08T23:45:15;100924.78;;;0.26;57.56
46111;BME280;31849;55.992;37.252;2023-02-08T23:50:20;100932.47;;;0.26;58.45
46111;BME280;31849;55.992;37.252;2023-02-08T23:55:23;100931.88;;;0.30;57.85
